MHTGMHRO

Guest
Details From MHTG - Tegucigalpa Toncontin Intl
To MHRO - Roatan
Flight Number -
Tags generated
Created
Modified
Stats Distance 143 nm / 264 km
Max Altitude 8,500 ft / 2,591 m
Waypoints 3
Social Downloads 1
Likes 0
Share VATSIM

Download

Looking for another format? Having issues loading an existing format? Contact us
Advertisement - Login to hide

Notes

Basic altitude profile: - Ascent Rate: 2500ft/min - Ascent Speed: 250kts - Cruise Altitude: 35000ft - Cruise Speed: 420kts - Descent Rate: 1500ft/min - Descent Speed: 250kts

Route

MHTG BTO MHRO

ID Type Via Altitude Latitude Longitude Leg Dist Tot Dist Heading (true) Name
O MHTG APT - 0 ft / 0 m 14.06088˚ -87.21720˚ - 0 nm - Tegucigalpa Toncontin Intl
BTO VOR - 8,500 ft / 2,591 m 15.73676˚ -86.86397˚ 102 nm 102 nm 11° / 12° BONITO VOR-DME
O MHRO APT - 0 ft / 0 m 16.31682˚ -86.52296˚ 40 nm 142 nm 29° / 30° Roatan

Altitude Profile

Advertisement - Login to hide

MHTG

Details ICAO MHTG (TGU)
Name Tegucigalpa Toncontin Intl
Region Honduras
Timezone America/Tegucigalpa (UTC-6.0)
Stats Elevation 3,294 ft / 1,004 m (AMSL)
Location 14.060883° -87.217197°
Runways 1
Magnetic Variation 0.661° W

METAR

MHTG 171400Z 36010KT 7000 FEW008 BKN024 18/15 Q1021 A3015 NOSIG

Decode

TAF

Not found

Departure Runways

ID Width Length Bearing (true) Bearing (mag) Surface Threshold Offset Overrun Length
02 148 ft / 45 m 6,140 ft / 1,872 m 18.87° 19.53° Asphalt 670 ft / 204 m 100 ft / 30 m
20 148 ft / 45 m 6,140 ft / 1,872 m 198.87° 199.53° Asphalt 0 ft / 0 m 200 ft / 61 m

MHRO

Details ICAO MHRO (RTB)
Name Roatan
Region Honduras
Timezone Unknown (UTC+0.0)
Stats Elevation 18 ft / 5 m (AMSL)
Location 16.316816° -86.522961°
Runways 1
Magnetic Variation 1.410° W

METAR

MHRO 171400Z 08014KT 8000 -RA SCT020CB BKN080 24/23 Q1017 A3003 NOSIG

Decode

TAF

Not found

Destination Runways

ID Width Length Bearing (true) Bearing (mag) Surface Threshold Offset Overrun Length
07 148 ft / 45 m 7,353 ft / 2,241 m 65.06° 66.47° Asphalt 200 ft / 61 m 0 ft / 0 m
25 148 ft / 45 m 7,353 ft / 2,241 m 245.06° 246.47° Asphalt 0 ft / 0 m 0 ft / 0 m

Popular Alternatives